Aérodrome :
LOGIN :

S'inscrire | Disclaimer

   EN    FR    IT 

 










Légende :    VFR   VFR Marginal   IFR   IFR Intensif   IFR Très Intensif
Visi : 
Plafond : 
>= 8 km
>= 3000ft
5 à 8 km
1000 à 3000 ft
1500m à 5 km
500 à 1000 ft
800 à 1500m
200 à 500 ft
< 800m
< 200 ft
Symboles :   Orages  Brouillard  Fortes neiges  Fortes précipitations  Vent > 20 kt
SIGMETs :   Divers  Orages  Givrage  Turbulence  Onde Orograph.  Cendres Volcan.






- Altitude de l'aérodrome : 29 ft
- Code IATA : SVG


ENZV - Sola

DERNIER METAR :
  • 062150Z 18008KT 9999 FEW040 SCT055 BKN070 08/07 Q1018

METARs EXPIRÉS :
  • 062120Z 18009KT 9999 FEW040 BKN060 08/07 Q1017
  • 062050Z 18007KT 9000 BKN059 08/07 Q1017
  • 062020Z 18007KT 9999 FEW037 OVC055 08/07 Q1017
  • 061950Z 16004KT 9999 FEW020 BKN055 08/07 Q1017
  • 061920Z 17008KT 9999 SCT015 BKN040 08/07 Q1017 NOSIG
  • 061850Z 17006KT 9999 SCT016 BKN020 08/07 Q1016 NOSIG

TAF TAF ENZV
Valide du 06 à 18h jusqu'au 07 à 18h UTC


0618/0718 17010KT 9999 FEW010 BKN020
BECMG 0618/0620 VRB05KT
TEMPO 0618/0624 BKN012
PROB30 0703/0707 0500 FG VV002
BECMG 0710/0712 24010KT
BECMG 0715/0718 18012KT



MET'MAP, la Météo Aéronautique d'un coup d'oeil ! - Copyright ORBIFLY Décembre 2007 - Disclaimer

ORBIFLY MET'MAP TEAM :

Programmation & Développement : Alexandra Zaïnal
Sur une idée originale de : Baudouin d'Aumeries
Assistance à la programmation : Marc-Olivier Méhu
Soutien technique & logistique : Manuel Goepfert

Contact : metmap@orbifly.com




SOURCES & CREDITS :

   NOAA